Terminal Aerodrome Forecast
Issued by NWS

Home | Current Version | Previous Version | Graphics & Text | Print | Product List | Glossary On
Versions: 1 2 3 4 5 6 7 8 9 10 11 12 13 14 15 16 17 18 19 20
000
FTUS43 KDVN 231500 AAA
TAFCID
TAF AMD
KCID 231559Z 2316/2412 17008KT P6SM VCSH SCT012 BKN020 OVC100
     FM231800 19010KT P6SM BKN040
     FM232100 22007KT P6SM SCT040
     FM240100 15004KT 5SM BR FEW040
     FM240800 16003KT 1SM BR SCT005=

USA.gov is the U.S. government's official web portal to all federal, state and local government web resources and services.